M I D A S
Marine Information and Data Acquisition System
Tripno 672 of the Zeeleeuw from 2004-03-19 07:12:58 to 2004-03-19 13:07:22
Back to CruiseResearch ActivitiesStationsMapUnderway DataData graphs

EquipmentUnitsComments
TimeDGPSUTC
LatitudeDGPSDM.mWGS84
LongitudeDGPSDM.mWGS84
SpeedMeteo Stationm/sRelative wind speed
DirectionMeteo StationdegRelative wind direction
TemperatureMeteo Stationdeg CelciusAir temperature
PressureMeteo StationPaAtmospheric pressure
HumidityMeteo Station%Relative humidity
Missing or incorrect values are displayed as -999
Metereological data collected by the RV Zeeleeuw from 2004-03-19 07:12:58 to 2004-03-19 13:07:22
                                                                                    Next 1000 lines
Time Latitude Longitude Speed Direction Temperature Pressure Humidity
2004-03-19 07:13:03 51°13.59 2°56.103 3.4 125 8.4 101690 87
2004-03-19 07:13:09 51°13.592 2°56.099 3.8 101 8.4 101690 87
2004-03-19 07:13:14 51°13.593 2°56.095 5.7 107 8.4 101690 87
2004-03-19 07:13:19 51°13.594 2°56.09 4.9 100 8.4 101690 87
2004-03-19 07:13:25 51°13.596 2°56.084 6.5 97 8.4 101690 87
2004-03-19 07:13:29 51°13.597 2°56.079 6.3 99 8.4 101690 87
2004-03-19 07:13:35 51°13.6 2°56.072 4.7 111 8.4 101690 87
2004-03-19 07:13:39 51°13.601 2°56.067 4.1 101 8.4 101690 87
2004-03-19 07:13:45 51°13.603 2°56.061 4.1 108 8.4 101690 87
2004-03-19 07:13:49 51°13.604 2°56.057 3.5 152 8.4 101700 87
2004-03-19 07:13:55 51°13.605 2°56.055 3.5 122 8.4 101700 87
2004-03-19 07:13:59 51°13.605 2°56.055 3.7 97 8.4 101690 87
2004-03-19 07:14:03 51°13.605 2°56.056 4.7 94 8.4 101690 87
2004-03-19 07:14:09 51°13.604 2°56.06 7.3 96 8.4 101690 87
2004-03-19 07:14:14 51°13.603 2°56.064 6.9 99 8.4 101690 87
2004-03-19 07:14:19 51°13.602 2°56.069 5.3 80 8.4 101700 87
2004-03-19 07:14:25 51°13.599 2°56.076 8.5 46 8.4 101700 87
2004-03-19 07:14:30 51°13.597 2°56.081 6.7 71 8.4 101690 87
2004-03-19 07:14:35 51°13.594 2°56.086 6.5 60 8.4 101690 87
2004-03-19 07:14:39 51°13.592 2°56.09 5.9 56 8.4 101690 87
2004-03-19 07:14:45 51°13.589 2°56.097 3.8 88 8.4 101690 87
2004-03-19 07:14:50 51°13.586 2°56.102 7.3 64 8.4 101690 87
2004-03-19 07:14:53 51°13.584 2°56.105 9.3 65 8.4 101690 87
2004-03-19 07:14:59 51°13.58 2°56.111 4.8 88 8.4 101690 87
2004-03-19 07:15:03 51°13.577 2°56.115 3.5 76 8.4 101690 87
2004-03-19 07:15:09 51°13.573 2°56.121 2.4 61 8.4 101690 87
2004-03-19 07:15:14 51°13.569 2°56.127 1.1 37 8.4 101690 87
2004-03-19 07:15:19 51°13.566 2°56.133 2.2 36 8.5 101690 87
2004-03-19 07:15:23 51°13.562 2°56.139 2.5 30 8.5 101690 87
2004-03-19 07:15:29 51°13.557 2°56.147 3 50 8.4 101690 87
2004-03-19 07:15:34 51°13.553 2°56.155 4.5 47 8.4 101690 87
2004-03-19 07:15:39 51°13.55 2°56.162 4.9 43 8.5 101690 87
2004-03-19 07:15:45 51°13.545 2°56.17 6.3 70 8.5 101690 87
2004-03-19 07:15:49 51°13.543 2°56.176 4.7 83 8.5 101690 87
2004-03-19 07:15:54 51°13.54 2°56.184 4.1 75 8.5 101690 87
2004-03-19 07:15:59 51°13.538 2°56.192 2.8 230 8.5 101690 87
2004-03-19 07:16:05 51°13.535 2°56.202 3.6 38 8.5 101690 87
2004-03-19 07:16:09 51°13.535 2°56.209 6.1 68 8.5 101680 87
2004-03-19 07:16:14 51°13.534 2°56.217 5.1 86 8.5 101680 87
2004-03-19 07:16:19 51°13.534 2°56.226 6.4 98 8.5 101690 87
2004-03-19 07:16:24 51°13.535 2°56.233 6 103 8.5 101690 87
2004-03-19 07:16:29 51°13.536 2°56.24 5.7 117 8.5 101680 87
2004-03-19 07:16:33 51°13.536 2°56.244 4.1 128 8.5 101680 87
2004-03-19 07:16:39 51°13.537 2°56.248 5.1 117 8.5 101680 87
2004-03-19 07:16:43 51°13.538 2°56.249 5 134 8.5 101680 87
2004-03-19 07:16:49 51°13.538 2°56.25 4.3 161 8.5 101680 87
2004-03-19 07:16:54 51°13.538 2°56.249 3.3 143 8.5 101680 87
2004-03-19 07:16:59 51°13.538 2°56.248 4.4 137 8.5 101680 87
2004-03-19 07:17:05 51°13.537 2°56.246 6.2 166 8.5 101680 87
2004-03-19 07:17:09 51°13.536 2°56.244 3.4 157 8.5 101690 87
2004-03-19 07:17:15 51°13.535 2°56.24 3.6 158 8.5 101690 87
2004-03-19 07:17:19 51°13.535 2°56.237 4.6 120 8.5 101690 87
2004-03-19 07:17:25 51°13.534 2°56.233 5.1 145 8.5 101690 87
2004-03-19 07:17:30 51°13.533 2°56.23 3.4 159 8.5 101690 87
2004-03-19 07:17:35 51°13.533 2°56.228 1.6 150 8.5 101690 87
2004-03-19 07:17:39 51°13.532 2°56.227 2.2 101 8.5 101690 87
2004-03-19 07:17:45 51°13.533 2°56.227 3.2 132 8.5 101690 87
2004-03-19 07:17:50 51°13.533 2°56.228 2 124 8.5 101690 87
2004-03-19 07:17:55 51°13.534 2°56.23 2.9 113 8.5 101690 87
2004-03-19 07:17:59 51°13.536 2°56.232 2.3 149 8.5 101690 87
2004-03-19 07:18:05 51°13.538 2°56.236 3.1 176 8.5 101690 87
2004-03-19 07:18:10 51°13.54 2°56.238 2.2 157 8.5 101690 86
2004-03-19 07:18:15 51°13.542 2°56.241 3.3 168 8.5 101690 86
2004-03-19 07:18:19 51°13.543 2°56.242 2.7 186 8.5 101690 86
2004-03-19 07:18:25 51°13.544 2°56.243 3.5 185 8.5 101690 86
2004-03-19 07:18:30 51°13.544 2°56.243 3.8 165 8.5 101690 86
2004-03-19 07:18:34 51°13.543 2°56.242 5.4 178 8.5 101690 86
2004-03-19 07:18:39 51°13.542 2°56.242 2.6 187 8.5 101680 86
2004-03-19 07:18:45 51°13.54 2°56.241 4.7 210 8.5 101680 86
2004-03-19 07:18:49 51°13.538 2°56.24 4.5 194 8.5 101680 86
2004-03-19 07:18:55 51°13.536 2°56.239 3.3 173 8.5 101680 86
2004-03-19 07:18:59 51°13.534 2°56.238 3.4 219 8.6 101690 87
2004-03-19 07:19:05 51°13.531 2°56.237 3.7 186 8.6 101690 87
2004-03-19 07:19:10 51°13.529 2°56.236 4.2 193 8.6 101680 87
2004-03-19 07:19:15 51°13.527 2°56.235 3.2 172 8.6 101680 87
2004-03-19 07:19:19 51°13.526 2°56.234 4.2 173 8.6 101690 87
2004-03-19 07:19:25 51°13.525 2°56.234 1.8 203 8.6 101690 87
2004-03-19 07:19:30 51°13.526 2°56.234 1.5 207 8.7 101690 86
2004-03-19 07:19:35 51°13.527 2°56.234 2.7 164 8.7 101690 86
2004-03-19 07:19:39 51°13.528 2°56.234 3.3 221 8.7 101690 86
2004-03-19 07:19:45 51°13.53 2°56.233 3.3 208 8.7 101690 86
2004-03-19 07:19:50 51°13.532 2°56.233 3.4 215 8.7 101690 86
2004-03-19 07:19:55 51°13.534 2°56.232 4.4 207 8.7 101690 86
2004-03-19 07:19:59 51°13.536 2°56.232 3.2 199 8.7 101680 86
2004-03-19 07:20:05 51°13.537 2°56.232 3.9 225 8.7 101680 86
2004-03-19 07:20:10 51°13.537 2°56.232 4.2 242 8.7 101680 86
2004-03-19 07:20:15 51°13.536 2°56.233 3.7 262 8.7 101680 86
2004-03-19 07:20:19 51°13.536 2°56.234 3 243 8.7 101690 86
2004-03-19 07:20:25 51°13.534 2°56.236 3.4 215 8.7 101690 86
2004-03-19 07:20:29 51°13.532 2°56.237 5.9 229 8.7 101690 86
2004-03-19 07:20:34 51°13.53 2°56.239 5.3 237 8.7 101690 86
2004-03-19 07:20:39 51°13.529 2°56.24 3.7 208 8.7 101690 86
2004-03-19 07:20:45 51°13.529 2°56.24 2.5 233 8.7 101690 86
2004-03-19 07:20:49 51°13.53 2°56.239 4.3 276 8.7 101680 86
2004-03-19 07:20:55 51°13.532 2°56.238 2.2 269 8.7 101680 86
2004-03-19 07:20:59 51°13.532 2°56.237 3.7 42 8.8 101690 86
2004-03-19 07:21:05 51°13.534 2°56.236 3 257 8.8 101690 86
2004-03-19 07:21:10 51°13.534 2°56.234 3.2 253 8.7 101680 86
2004-03-19 07:21:15 51°13.535 2°56.233 2.2 258 8.7 101680 86
2004-03-19 07:21:19 51°13.536 2°56.232 3.6 269 8.7 101680 86
2004-03-19 07:21:25 51°13.536 2°56.23 2.7 254 8.7 101680 86
2004-03-19 07:21:29 51°13.537 2°56.228 3.4 300 8.7 101670 86
2004-03-19 07:21:34 51°13.538 2°56.226 3.3 307 8.7 101670 86
2004-03-19 07:21:39 51°13.538 2°56.225 3.3 267 8.7 101680 86
2004-03-19 07:21:43 51°13.538 2°56.223 3 270 8.7 101680 86
2004-03-19 07:21:49 51°13.538 2°56.22 3.2 266 8.7 101680 86
2004-03-19 07:21:54 51°13.539 2°56.217 2.3 255 8.7 101680 86
2004-03-19 07:21:59 51°13.539 2°56.214 3.4 235 8.7 101680 85
2004-03-19 07:22:05 51°13.54 2°56.21 4.6 255 8.7 101680 85
2004-03-19 07:22:09 51°13.54 2°56.208 3.7 263 8.7 101680 85
2004-03-19 07:22:14 51°13.541 2°56.205 6 270 8.7 101680 85
2004-03-19 07:22:19 51°13.542 2°56.202 5.6 280 8.7 101680 85
2004-03-19 07:22:24 51°13.543 2°56.199 4.4 253 8.7 101680 85
2004-03-19 07:22:29 51°13.544 2°56.196 5 271 8.7 101690 85
2004-03-19 07:22:33 51°13.545 2°56.193 5 261 8.7 101690 85
2004-03-19 07:22:39 51°13.546 2°56.19 3.3 255 8.7 101680 85
2004-03-19 07:22:43 51°13.547 2°56.188 3.5 260 8.7 101680 85
2004-03-19 07:22:49 51°13.548 2°56.184 3.6 270 8.7 101670 85
2004-03-19 07:22:53 51°13.549 2°56.182 2.6 313 8.7 101670 85
2004-03-19 07:22:59 51°13.551 2°56.178 2.7 40 8.7 101680 85
2004-03-19 07:23:05 51°13.552 2°56.175 4.3 306 8.7 101680 85
2004-03-19 07:23:09 51°13.552 2°56.172 5 287 8.7 101690 85
2004-03-19 07:23:14 51°13.553 2°56.169 4.5 290 8.7 101690 85
2004-03-19 07:23:19 51°13.554 2°56.166 3.4 263 8.7 101680 85
2004-03-19 07:23:25 51°13.555 2°56.163 4 261 8.7 101680 85
2004-03-19 07:23:29 51°13.556 2°56.161 5.6 234 8.7 101680 85
2004-03-19 07:23:34 51°13.557 2°56.158 2.6 253 8.7 101680 85
2004-03-19 07:23:39 51°13.558 2°56.155 3.9 265 8.6 101670 85
2004-03-19 07:23:45 51°13.56 2°56.152 2.4 251 8.6 101670 85
2004-03-19 07:23:49 51°13.56 2°56.15 2 262 8.6 101670 85
2004-03-19 07:23:55 51°13.562 2°56.147 3.3 236 8.6 101670 85
2004-03-19 07:23:59 51°13.563 2°56.144 3.6 242 8.6 101680 85
2004-03-19 07:24:05 51°13.564 2°56.141 1.8 258 8.6 101680 85
2004-03-19 07:24:09 51°13.564 2°56.139 2.3 254 8.6 101670 85
2004-03-19 07:24:14 51°13.565 2°56.136 3.7 276 8.6 101670 85
2004-03-19 07:24:19 51°13.566 2°56.134 2.9 274 8.6 101680 85
2004-03-19 07:24:25 51°13.567 2°56.131 3.2 286 8.6 101680 85
2004-03-19 07:24:29 51°13.568 2°56.129 2.2 282 8.6 101660 85
2004-03-19 07:24:33 51°13.568 2°56.127 2.1 297 8.6 101660 85
2004-03-19 07:24:39 51°13.569 2°56.124 1.1 236 8.6 101660 85
2004-03-19 07:24:45 51°13.571 2°56.12 1.6 191 8.6 101660 85
2004-03-19 07:24:49 51°13.571 2°56.117 1.1 211 8.6 101670 85
2004-03-19 07:24:54 51°13.572 2°56.114 0.6 200 8.6 101670 85
2004-03-19 07:24:59 51°13.573 2°56.111 1.4 311 8.6 101670 85
2004-03-19 07:25:05 51°13.575 2°56.107 3.5 233 8.6 101670 85
2004-03-19 07:25:09 51°13.575 2°56.104 2.7 251 8.6 101660 85
2004-03-19 07:25:14 51°13.576 2°56.101 4.3 273 8.6 101660 85
2004-03-19 07:25:19 51°13.577 2°56.098 2.4 302 8.6 101660 85
2004-03-19 07:25:25 51°13.578 2°56.094 3.1 251 8.6 101660 85
2004-03-19 07:25:29 51°13.579 2°56.091 2.4 284 8.6 101660 85
2004-03-19 07:25:34 51°13.58 2°56.088 1.9 270 8.6 101660 85
2004-03-19 07:25:39 51°13.581 2°56.085 0.9 302 8.6 101660 85
2004-03-19 07:25:45 51°13.582 2°56.081 1 285 8.6 101660 85
2004-03-19 07:25:49 51°13.583 2°56.079 1 232 8.6 101650 85
2004-03-19 07:25:54 51°13.584 2°56.076 3.9 266 8.6 101650 85
2004-03-19 07:25:59 51°13.585 2°56.073 4.7 274 8.7 101650 85
2004-03-19 07:26:05 51°13.587 2°56.07 6.2 272 8.7 101650 85
2004-03-19 07:26:09 51°13.587 2°56.067 5 281 8.7 101660 85
2004-03-19 07:26:14 51°13.588 2°56.064 3.4 247 8.7 101660 85
2004-03-19 07:26:19 51°13.589 2°56.062 2.4 252 8.6 101660 85
2004-03-19 07:26:23 51°13.59 2°56.059 1.8 266 8.6 101660 85
2004-03-19 07:26:29 51°13.591 2°56.056 2.8 283 8.6 101660 85
2004-03-19 07:26:34 51°13.593 2°56.053 4 307 8.6 101660 85
2004-03-19 07:26:39 51°13.594 2°56.049 6.5 280 8.7 101650 85
2004-03-19 07:26:45 51°13.595 2°56.046 4.6 265 8.7 101650 85
2004-03-19 07:26:49 51°13.596 2°56.043 4.5 277 8.7 101650 85
2004-03-19 07:26:54 51°13.598 2°56.04 2.6 270 8.7 101650 85
2004-03-19 07:26:59 51°13.599 2°56.037 6 273 8.7 101660 85
2004-03-19 07:27:03 51°13.6 2°56.035 3.5 258 8.7 101660 85
2004-03-19 07:27:09 51°13.601 2°56.031 3.2 243 8.7 101650 85
2004-03-19 07:27:14 51°13.602 2°56.028 5.3 261 8.7 101650 85
2004-03-19 07:27:19 51°13.604 2°56.025 8.6 275 8.6 101650 85
2004-03-19 07:27:23 51°13.605 2°56.023 6.7 272 8.6 101650 85
2004-03-19 07:27:29 51°13.606 2°56.02 7.2 269 8.7 101650 85
2004-03-19 07:27:34 51°13.607 2°56.017 3.3 258 8.7 101650 85
2004-03-19 07:27:39 51°13.608 2°56.014 4.9 266 8.7 101640 85
2004-03-19 07:27:45 51°13.61 2°56.01 3.8 231 8.7 101640 85
2004-03-19 07:27:49 51°13.612 2°56.007 3.5 226 8.7 101640 85
2004-03-19 07:27:54 51°13.614 2°56.004 5.7 274 8.7 101640 85
2004-03-19 07:28:01 51°13.616 2°55.999 6.1 270 8.6 101640 85
2004-03-19 07:28:05 51°13.617 2°55.995 5.5 272 8.6 101640 85
2004-03-19 07:28:09 51°13.618 2°55.992 6.1 234 8.7 101640 85
2004-03-19 07:28:14 51°13.62 2°55.987 4.9 283 8.7 101640 85
2004-03-19 07:28:19 51°13.622 2°55.982 4.3 284 8.6 101640 85
2004-03-19 07:28:23 51°13.624 2°55.978 4.1 272 8.6 101640 85
2004-03-19 07:28:29 51°13.627 2°55.971 5.5 267 8.6 101640 85
2004-03-19 07:28:33 51°13.629 2°55.967 5 269 8.6 101640 85
2004-03-19 07:28:39 51°13.632 2°55.959 4.5 266 8.6 101650 85
2004-03-19 07:28:43 51°13.634 2°55.954 4 270 8.6 101650 85
2004-03-19 07:28:49 51°13.638 2°55.946 5 282 8.7 101640 85
2004-03-19 07:28:54 51°13.641 2°55.939 3.3 248 8.7 101640 85
2004-03-19 07:28:59 51°13.644 2°55.931 3 238 8.6 101640 85
2004-03-19 07:29:04 51°13.647 2°55.924 3.4 34 8.6 101640 85
2004-03-19 07:29:09 51°13.651 2°55.916 1.9 5 8.6 101640 85
2004-03-19 07:29:13 51°13.653 2°55.91 2.5 352 8.6 101640 85
2004-03-19 07:29:19 51°13.657 2°55.9 1.2 344 8.6 101640 85
2004-03-19 07:29:23 51°13.66 2°55.893 2.6 293 8.6 101640 85
2004-03-19 07:29:29 51°13.664 2°55.882 3.4 231 8.6 101640 85
2004-03-19 07:29:34 51°13.668 2°55.873 4.1 342 8.6 101640 85
2004-03-19 07:29:39 51°13.673 2°55.863 5.4 324 8.6 101640 85
2004-03-19 07:29:44 51°13.678 2°55.853 5.9 302 8.6 101640 85
2004-03-19 07:29:49 51°13.682 2°55.842 8.2 276 8.6 101640 85
2004-03-19 07:29:54 51°13.687 2°55.832 8 274 8.6 101640 85
2004-03-19 07:29:59 51°13.692 2°55.821 6.7 271 8.6 101640 85
2004-03-19 07:30:05 51°13.699 2°55.807 7 286 8.6 101640 85
2004-03-19 07:30:09 51°13.703 2°55.798 8.1 290 8.7 101640 85
2004-03-19 07:30:14 51°13.709 2°55.787 7.5 275 8.7 101640 85
2004-03-19 07:30:19 51°13.715 2°55.775 6.2 283 8.7 101630 85
2004-03-19 07:30:25 51°13.722 2°55.761 6.6 275 8.7 101630 85
2004-03-19 07:30:29 51°13.727 2°55.751 5.4 295 8.6 101630 85
2004-03-19 07:30:34 51°13.733 2°55.739 5.4 300 8.6 101630 85
2004-03-19 07:30:39 51°13.74 2°55.727 8.1 275 8.7 101630 85
2004-03-19 07:30:45 51°13.749 2°55.713 2.5 256 8.7 101630 85
2004-03-19 07:30:49 51°13.756 2°55.704 3.9 278 8.6 101640 85
2004-03-19 07:30:54 51°13.764 2°55.694 3.5 319 8.6 101640 85
2004-03-19 07:30:59 51°13.773 2°55.683 3.6 295 8.6 101640 85
2004-03-19 07:31:05 51°13.784 2°55.671 5.4 281 8.6 101640 85
2004-03-19 07:31:09 51°13.791 2°55.664 3.1 257 8.6 101640 85
2004-03-19 07:31:14 51°13.8 2°55.654 2.6 277 8.6 101640 85
2004-03-19 07:31:19 51°13.809 2°55.646 1.7 305 8.7 101640 85
2004-03-19 07:31:25 51°13.821 2°55.636 0.9 273 8.7 101640 85
2004-03-19 07:31:29 51°13.829 2°55.63 0.5 237 8.6 101640 85
2004-03-19 07:31:34 51°13.839 2°55.622 3.3 201 8.6 101640 85
2004-03-19 07:31:39 51°13.849 2°55.614 4.7 267 8.7 101640 85
2004-03-19 07:31:43 51°13.857 2°55.608 3.1 284 8.7 101640 85
2004-03-19 07:31:49 51°13.868 2°55.599 2.2 266 8.7 101640 85
2004-03-19 07:31:54 51°13.878 2°55.592 2.2 235 8.7 101640 85
2004-03-19 07:31:59 51°13.888 2°55.585 2.4 229 8.7 101640 85
2004-03-19 07:32:03 51°13.896 2°55.579 1.7 302 8.7 101640 85
2004-03-19 07:32:09 51°13.908 2°55.571 1.2 253 8.7 101650 85
2004-03-19 07:32:14 51°13.918 2°55.564 1.1 330 8.7 101650 85
2004-03-19 07:32:19 51°13.928 2°55.557 1.9 350 8.7 101640 85
2004-03-19 07:32:25 51°13.94 2°55.549 1.9 329 8.7 101640 85
2004-03-19 07:32:29 51°13.948 2°55.543 1 312 8.7 101640 85
2004-03-19 07:32:33 51°13.956 2°55.538 2.6 338 8.7 101640 85
2004-03-19 07:32:39 51°13.968 2°55.53 4.1 350 8.7 101640 85
2004-03-19 07:32:43 51°13.976 2°55.524 3.7 335 8.7 101640 85
2004-03-19 07:32:49 51°13.988 2°55.515 3.1 337 8.7 101640 85
2004-03-19 07:32:54 51°13.998 2°55.508 4.4 293 8.7 101640 85
2004-03-19 07:32:59 51°14.008 2°55.5 4 280 8.7 101640 85
2004-03-19 07:33:03 51°14.017 2°55.494 4.2 273 8.7 101640 85
2004-03-19 07:33:09 51°14.029 2°55.486 2.6 290 8.7 101640 85
2004-03-19 07:33:13 51°14.038 2°55.48 2.8 312 8.7 101640 85
2004-03-19 07:33:19 51°14.051 2°55.47 2.9 304 8.7 101640 85
2004-03-19 07:33:25 51°14.064 2°55.46 3.2 269 8.7 101640 85
2004-03-19 07:33:30 51°14.076 2°55.451 3 286 8.7 101640 85
2004-03-19 07:33:35 51°14.088 2°55.442 2.6 296 8.7 101640 85
2004-03-19 07:33:39 51°14.098 2°55.435 2.3 227 8.7 101640 85
2004-03-19 07:33:43 51°14.108 2°55.427 2.3 312 8.7 101640 85
2004-03-19 07:33:49 51°14.124 2°55.416 3.9 305 8.7 101640 85
2004-03-19 07:33:53 51°14.134 2°55.408 3.7 353 8.7 101640 85
2004-03-19 07:33:59 51°14.15 2°55.396 3.2 40 8.7 101640 85
2004-03-19 07:34:05 51°14.165 2°55.383 2.2 325 8.7 101640 85
2004-03-19 07:34:09 51°14.175 2°55.373 4.6 329 8.7 101640 85
2004-03-19 07:34:15 51°14.189 2°55.358 5.9 295 8.7 101640 85
2004-03-19 07:34:19 51°14.199 2°55.347 5 297 8.7 101640 85
2004-03-19 07:34:25 51°14.213 2°55.331 4.2 38 8.7 101640 85
2004-03-19 07:34:29 51°14.222 2°55.319 5.2 333 8.7 101640 84
2004-03-19 07:34:35 51°14.236 2°55.301 6.3 340 8.7 101640 84
2004-03-19 07:34:39 51°14.245 2°55.288 7.3 336 8.7 101640 84
2004-03-19 07:34:45 51°14.258 2°55.269 7.8 335 8.7 101640 84
2004-03-19 07:34:49 51°14.266 2°55.256 9.5 32 8.7 101630 84
2004-03-19 07:34:55 51°14.279 2°55.235 10 306 8.7 101630 84
2004-03-19 07:34:59 51°14.287 2°55.221 9.9 314 8.7 101630 84
2004-03-19 07:35:05 51°14.298 2°55.199 4.9 338 8.7 101630 84
2004-03-19 07:35:10 51°14.308 2°55.181 5.6 318 8.7 101630 84
2004-03-19 07:35:15 51°14.318 2°55.162 7.8 330 8.7 101630 84
2004-03-19 07:35:19 51°14.325 2°55.147 9.6 235 8.7 101620 84
2004-03-19 07:35:25 51°14.337 2°55.123 9.8 39 8.7 101620 84
2004-03-19 07:35:30 51°14.346 2°55.104 7.2 338 8.7 101630 84
2004-03-19 07:35:35 51°14.356 2°55.084 8.3 35 8.7 101630 84
2004-03-19 07:35:39 51°14.364 2°55.068 10.9 310 8.7 101630 84
2004-03-19 07:35:45 51°14.376 2°55.043 13.2 308 8.7 101630 84
2004-03-19 07:35:49 51°14.384 2°55.026 14.7 302 8.7 101640 84
2004-03-19 07:35:54 51°14.392 2°55.004 13.9 304 8.7 101640 84
2004-03-19 07:35:59 51°14.4 2°54.98 14.9 230 8.7 101640 84
2004-03-19 07:36:05 51°14.407 2°54.95 14.9 314 8.7 101640 84
2004-03-19 07:36:09 51°14.411 2°54.93 12.6 228 8.7 101630 84
2004-03-19 07:36:14 51°14.416 2°54.903 12.8 320 8.7 101630 84
2004-03-19 07:36:19 51°14.419 2°54.876 13.6 324 8.7 101610 84
2004-03-19 07:36:25 51°14.423 2°54.843 13.3 322 8.7 101610 84
2004-03-19 07:36:29 51°14.424 2°54.82 13.8 330 8.7 101620 84
2004-03-19 07:36:34 51°14.425 2°54.791 14.9 323 8.7 101620 84
2004-03-19 07:36:39 51°14.426 2°54.761 15.4 323 8.7 101610 84
2004-03-19 07:36:43 51°14.427 2°54.737 15.8 324 8.7 101610 84
2004-03-19 07:36:49 51°14.426 2°54.702 14.1 329 8.7 101620 84
2004-03-19 07:36:53 51°14.426 2°54.677 15.2 337 8.7 101620 84
2004-03-19 07:36:59 51°14.423 2°54.641 15.6 336 8.7 101610 84
2004-03-19 07:37:03 51°14.42 2°54.617 17.2 338 8.7 101610 84
2004-03-19 07:37:09 51°14.414 2°54.582 16.4 345 8.7 101610 84
2004-03-19 07:37:14 51°14.409 2°54.553 15.9 337 8.7 101610 84
2004-03-19 07:37:19 51°14.402 2°54.525 15.9 338 8.7 101610 84
2004-03-19 07:37:23 51°14.396 2°54.502 17 346 8.7 101610 84
2004-03-19 07:37:29 51°14.387 2°54.468 16.5 334 8.7 101610 84
2004-03-19 07:37:34 51°14.379 2°54.44 17.4 338 8.7 101610 84
2004-03-19 07:37:39 51°14.372 2°54.412 17.4 336 8.7 101610 84
2004-03-19 07:37:44 51°14.363 2°54.384 15.9 339 8.7 101610 84
2004-03-19 07:37:49 51°14.355 2°54.357 16.7 345 8.7 101600 84
2004-03-19 07:37:54 51°14.345 2°54.331 17.3 342 8.7 101600 84
2004-03-19 07:37:59 51°14.335 2°54.305 16.5 350 8.7 101600 84
2004-03-19 07:38:05 51°14.322 2°54.274 16.1 349 8.7 101600 84
2004-03-19 07:38:09 51°14.313 2°54.254 16.1 352 8.7 101600 84
2004-03-19 07:38:14 51°14.302 2°54.229 16.7 347 8.7 101600 84
2004-03-19 07:38:19 51°14.291 2°54.203 17 353 8.7 101610 84
2004-03-19 07:38:25 51°14.277 2°54.173 18.3 353 8.7 101610 84
2004-03-19 07:38:29 51°14.269 2°54.152 18.1 346 8.7 101610 84
2004-03-19 07:38:34 51°14.258 2°54.127 18 351 8.7 101610 84
2004-03-19 07:38:39 51°14.248 2°54.1 18.8 345 8.7 101610 84
2004-03-19 07:38:43 51°14.239 2°54.079 18.2 342 8.7 101610 84
2004-03-19 07:38:49 51°14.227 2°54.047 17.4 347 8.7 101610 84
2004-03-19 07:38:53 51°14.219 2°54.026 17.2 356 8.7 101610 84
2004-03-19 07:38:59 51°14.207 2°53.994 16.6 347 8.7 101610 84
2004-03-19 07:39:03 51°14.199 2°53.973 18.2 344 8.7 101610 84
2004-03-19 07:39:09 51°14.186 2°53.941 19.2 346 8.8 101610 84
2004-03-19 07:39:14 51°14.176 2°53.915 19.7 350 8.8 101610 84
2004-03-19 07:39:19 51°14.165 2°53.889 18.5 351 8.7 101610 84
2004-03-19 07:39:25 51°14.152 2°53.857 18.1 347 8.7 101610 84
2004-03-19 07:39:29 51°14.144 2°53.836 17.2 352 8.7 101610 84
2004-03-19 07:39:34 51°14.133 2°53.81 17.2 348 8.7 101610 84
2004-03-19 07:39:39 51°14.123 2°53.783 17.8 341 8.7 101600 83
2004-03-19 07:39:45 51°14.11 2°53.751 17.4 344 8.7 101600 83
2004-03-19 07:39:49 51°14.103 2°53.729 17.3 343 8.7 101610 83
2004-03-19 07:39:54 51°14.093 2°53.702 18.7 345 8.7 101610 83
2004-03-19 07:39:59 51°14.083 2°53.675 17.6 349 8.7 101610 83
2004-03-19 07:40:05 51°14.071 2°53.642 17.1 348 8.7 101610 83
2004-03-19 07:40:09 51°14.063 2°53.621 18.5 350 8.7 101610 83
2004-03-19 07:40:14 51°14.052 2°53.594 19.6 344 8.7 101610 83
2004-03-19 07:40:19 51°14.042 2°53.567 19.5 346 8.7 101610 83
2004-03-19 07:40:25 51°14.029 2°53.535 18.6 345 8.7 101610 83
2004-03-19 07:40:29 51°14.02 2°53.514 18.6 345 8.7 101610 83
2004-03-19 07:40:33 51°14.012 2°53.492 17.9 347 8.7 101610 83
2004-03-19 07:40:39 51°14 2°53.46 18.5 342 8.7 101610 83
2004-03-19 07:40:43 51°13.992 2°53.438 19.5 346 8.7 101610 83
2004-03-19 07:40:49 51°13.98 2°53.405 19.4 341 8.7 101600 83
2004-03-19 07:40:54 51°13.971 2°53.376 17.5 346 8.7 101600 83
2004-03-19 07:40:59 51°13.962 2°53.348 17.9 348 8.7 101600 83
2004-03-19 07:41:05 51°13.952 2°53.314 16.5 346 8.7 101600 83
2004-03-19 07:41:09 51°13.945 2°53.291 16.6 343 8.7 101600 83
2004-03-19 07:41:13 51°13.938 2°53.268 15.9 345 8.7 101600 83
2004-03-19 07:41:19 51°13.927 2°53.234 20 345 8.7 101600 83
2004-03-19 07:41:23 51°13.92 2°53.212 18.8 345 8.7 101600 83
2004-03-19 07:41:29 51°13.908 2°53.178 17.9 341 8.7 101600 83
2004-03-19 07:41:34 51°13.899 2°53.15 17.5 345 8.7 101600 83
2004-03-19 07:41:39 51°13.889 2°53.122 17.1 340 8.7 101610 83
2004-03-19 07:41:45 51°13.878 2°53.088 18.6 350 8.7 101610 83
2004-03-19 07:41:49 51°13.87 2°53.066 18.7 346 8.7 101590 83
2004-03-19 07:41:54 51°13.86 2°53.038 18 341 8.7 101590 83
2004-03-19 07:41:59 51°13.851 2°53.01 17.2 348 8.7 101600 83
2004-03-19 07:42:05 51°13.84 2°52.976 16.8 350 8.7 101600 83
2004-03-19 07:42:09 51°13.833 2°52.953 17.5 348 8.7 101610 83
2004-03-19 07:42:13 51°13.825 2°52.931 17.2 346 8.7 101610 83
2004-03-19 07:42:19 51°13.814 2°52.897 18.2 347 8.7 101600 83
2004-03-19 07:42:23 51°13.806 2°52.875 17.3 347 8.7 101600 83
2004-03-19 07:42:29 51°13.795 2°52.841 18.3 345 8.7 101600 83
2004-03-19 07:42:33 51°13.788 2°52.818 18.8 346 8.7 101600 83
2004-03-19 07:42:39 51°13.776 2°52.784 19.5 347 8.7 101610 83
2004-03-19 07:42:45 51°13.764 2°52.751 17.5 348 8.7 101610 83
2004-03-19 07:42:49 51°13.757 2°52.728 17.9 345 8.7 101600 83
2004-03-19 07:42:54 51°13.747 2°52.7 17.2 345 8.7 101600 83
2004-03-19 07:42:59 51°13.737 2°52.672 17.5 349 8.7 101600 83
2004-03-19 07:43:05 51°13.726 2°52.638 19.2 347 8.7 101600 83
2004-03-19 07:43:09 51°13.718 2°52.615 19.6 344 8.7 101590 83
2004-03-19 07:43:14 51°13.708 2°52.587 18.2 344 8.7 101590 83
2004-03-19 07:43:19 51°13.699 2°52.559 17.4 345 8.6 101600 83
2004-03-19 07:43:25 51°13.688 2°52.525 16.9 349 8.6 101600 83
2004-03-19 07:43:29 51°13.68 2°52.502 19.2 342 8.6 101600 83
2004-03-19 07:43:34 51°13.671 2°52.474 19 344 8.6 101600 83
2004-03-19 07:43:39 51°13.661 2°52.446 17.8 342 8.7 101600 83
2004-03-19 07:43:45 51°13.65 2°52.412 19.2 342 8.7 101600 83
2004-03-19 07:43:49 51°13.642 2°52.389 17.1 343 8.7 101600 83
2004-03-19 07:43:54 51°13.633 2°52.361 15.5 343 8.7 101600 83
2004-03-19 07:43:59 51°13.623 2°52.332 15.2 344 8.7 101590 83
2004-03-19 07:44:03 51°13.615 2°52.309 17 345 8.7 101590 83
2004-03-19 07:44:09 51°13.604 2°52.275 18.5 341 8.7 101600 83
2004-03-19 07:44:13 51°13.596 2°52.253 18 342 8.7 101600 83
2004-03-19 07:44:19 51°13.585 2°52.218 19.2 340 8.7 101600 83
2004-03-19 07:44:24 51°13.575 2°52.19 18.3 341 8.7 101600 83
2004-03-19 07:44:29 51°13.566 2°52.162 18.1 344 8.7 101610 83
2004-03-19 07:44:33 51°13.558 2°52.139 17 345 8.7 101610 83
2004-03-19 07:44:39 51°13.546 2°52.105 17.5 345 8.7 101600 83
2004-03-19 07:44:44 51°13.537 2°52.077 18.3 343 8.7 101600 83
2004-03-19 07:44:49 51°13.527 2°52.049 18.5 338 8.7 101590 83
2004-03-19 07:44:53 51°13.519 2°52.026 17.4 345 8.7 101590 83
2004-03-19 07:44:59 51°13.507 2°51.992 16.2 342 8.7 101590 83
2004-03-19 07:45:05 51°13.496 2°51.958 19.4 337 8.7 101590 83
2004-03-19 07:45:09 51°13.488 2°51.936 16.8 341 8.7 101590 83
2004-03-19 07:45:14 51°13.479 2°51.907 17.1 341 8.7 101590 83
2004-03-19 07:45:19 51°13.469 2°51.879 15.6 340 8.7 101590 83
2004-03-19 07:45:25 51°13.457 2°51.846 15.9 343 8.7 101590 83
2004-03-19 07:45:29 51°13.449 2°51.823 16 343 8.7 101600 83
2004-03-19 07:45:34 51°13.44 2°51.795 16.8 346 8.7 101600 83
2004-03-19 07:45:39 51°13.43 2°51.767 18.1 347 8.7 101590 83
2004-03-19 07:45:45 51°13.419 2°51.733 17.2 348 8.7 101590 83
2004-03-19 07:45:49 51°13.411 2°51.71 17.3 344 8.7 101600 83
2004-03-19 07:45:54 51°13.401 2°51.682 16 343 8.7 101600 83
2004-03-19 07:45:59 51°13.392 2°51.654 18.2 342 8.7 101580 83
2004-03-19 07:46:03 51°13.384 2°51.632 15.9 335 8.7 101580 83
2004-03-19 07:46:09 51°13.372 2°51.598 17.3 336 8.6 101600 83
2004-03-19 07:46:14 51°13.363 2°51.57 16.5 338 8.6 101600 83
2004-03-19 07:46:19 51°13.353 2°51.542 15.8 343 8.7 101590 83
2004-03-19 07:46:25 51°13.341 2°51.508 15.4 344 8.7 101590 83
2004-03-19 07:46:29 51°13.334 2°51.486 16.4 343 8.7 101590 83
2004-03-19 07:46:34 51°13.324 2°51.458 16.5 344 8.7 101590 83
2004-03-19 07:46:39 51°13.314 2°51.43 16.6 342 8.7 101590 83
2004-03-19 07:46:43 51°13.307 2°51.407 17.2 343 8.7 101590 83
2004-03-19 07:46:49 51°13.296 2°51.373 17.4 340 8.6 101600 83
2004-03-19 07:46:53 51°13.288 2°51.35 16.3 344 8.6 101600 83
2004-03-19 07:46:59 51°13.277 2°51.316 17.9 344 8.6 101590 83
2004-03-19 07:47:04 51°13.267 2°51.288 16.7 343 8.6 101590 83
2004-03-19 07:47:09 51°13.258 2°51.26 16.1 346 8.6 101590 83
2004-03-19 07:47:13 51°13.25 2°51.237 15.9 347 8.6 101590 83
2004-03-19 07:47:19 51°13.239 2°51.202 16.1 348 8.6 101590 83
2004-03-19 07:47:23 51°13.232 2°51.179 16.5 342 8.6 101590 83
2004-03-19 07:47:29 51°13.221 2°51.145 16.4 342 8.7 101590 83
2004-03-19 07:47:34 51°13.211 2°51.117 17.5 345 8.7 101590 83
2004-03-19 07:47:39 51°13.202 2°51.088 16.1 345 8.7 101600 83
2004-03-19 07:47:43 51°13.194 2°51.065 16.9 341 8.7 101600 83
2004-03-19 07:47:49 51°13.183 2°51.031 16.9 346 8.7 101600 83
2004-03-19 07:47:54 51°13.173 2°51.003 16.2 347 8.7 101600 83
2004-03-19 07:47:59 51°13.164 2°50.974 18 345 8.7 101590 83
2004-03-19 07:48:05 51°13.152 2°50.94 17.1 350 8.7 101590 83
2004-03-19 07:48:09 51°13.145 2°50.918 16.3 349 8.7 101600 83
2004-03-19 07:48:14 51°13.135 2°50.889 17.8 347 8.7 101600 83
2004-03-19 07:48:19 51°13.126 2°50.861 17.1 348 8.7 101590 83
2004-03-19 07:48:25 51°13.115 2°50.827 17.7 349 8.7 101590 83
2004-03-19 07:48:29 51°13.107 2°50.804 18.7 344 8.7 101590 83
2004-03-19 07:48:34 51°13.098 2°50.776 16.5 343 8.7 101590 83
2004-03-19 07:48:39 51°13.088 2°50.747 15.7 345 8.7 101590 83
2004-03-19 07:48:43 51°13.081 2°50.724 14.3 341 8.7 101590 83
2004-03-19 07:48:49 51°13.069 2°50.691 17 342 8.7 101600 83
2004-03-19 07:48:54 51°13.06 2°50.662 16.4 345 8.7 101600 83
2004-03-19 07:48:59 51°13.05 2°50.634 16.7 345 8.7 101590 83
2004-03-19 07:49:05 51°13.039 2°50.6 18.5 340 8.7 101590 83
2004-03-19 07:49:09 51°13.032 2°50.577 18.7 338 8.7 101590 83
2004-03-19 07:49:13 51°13.024 2°50.554 19.3 342 8.7 101590 83
2004-03-19 07:49:19 51°13.013 2°50.52 18.6 340 8.7 101590 83
2004-03-19 07:49:25 51°13.002 2°50.486 17.5 341 8.7 101590 83
2004-03-19 07:49:29 51°12.994 2°50.463 16.6 340 8.7 101580 83
2004-03-19 07:49:35 51°12.983 2°50.429 16.5 344 8.7 101580 83
2004-03-19 07:49:39 51°12.975 2°50.407 16.7 343 8.7 101570 82
2004-03-19 07:49:45 51°12.964 2°50.373 17.8 345 8.7 101570 82
2004-03-19 07:49:49 51°12.957 2°50.35 17.7 347 8.7 101580 82
2004-03-19 07:49:54 51°12.948 2°50.321 16.1 351 8.7 101580 82
2004-03-19 07:49:59 51°12.938 2°50.293 18.1 347 8.8 101580 82
2004-03-19 07:50:05 51°12.927 2°50.259 19 342 8.8 101580 82
2004-03-19 07:50:09 51°12.919 2°50.236 17.7 345 8.8 101590 82
2004-03-19 07:50:13 51°12.912 2°50.213 19.1 346 8.8 101590 82
2004-03-19 07:50:19 51°12.901 2°50.179 18.2 347 8.8 101590 82
2004-03-19 07:50:25 51°12.89 2°50.145 18.7 343 8.8 101590 82
2004-03-19 07:50:29 51°12.883 2°50.122 20.3 345 8.8 101590 82
2004-03-19 07:50:34 51°12.873 2°50.094 20.1 346 8.8 101590 82
2004-03-19 07:50:39 51°12.864 2°50.066 21.1 348 8.8 101590 82
2004-03-19 07:50:43 51°12.856 2°50.044 18.7 345 8.8 101590 82
2004-03-19 07:50:49 51°12.845 2°50.01 19.9 345 8.8 101580 82
2004-03-19 07:50:53 51°12.837 2°49.987 18.3 351 8.8 101580 82
2004-03-19 07:50:59 51°12.826 2°49.953 17.4 348 8.8 101580 82
2004-03-19 07:51:04 51°12.816 2°49.925 19.4 350 8.8 101580 82
2004-03-19 07:51:09 51°12.807 2°49.897 17.5 344 8.8 101570 82
2004-03-19 07:51:13 51°12.799 2°49.874 16.9 341 8.8 101570 82
2004-03-19 07:51:19 51°12.788 2°49.84 17.7 346 8.8 101580 82
2004-03-19 07:51:23 51°12.78 2°49.818 19.3 342 8.8 101580 82
2004-03-19 07:51:29 51°12.769 2°49.783 17.7 341 8.8 101580 82
2004-03-19 07:51:34 51°12.76 2°49.755 17.6 344 8.8 101580 82
2004-03-19 07:51:39 51°12.751 2°49.727 19.5 344 8.9 101570 82
2004-03-19 07:51:43 51°12.743 2°49.704 17.9 345 8.9 101570 82
2004-03-19 07:51:49 51°12.732 2°49.67 18.7 342 8.9 101580 82
2004-03-19 07:51:54 51°12.723 2°49.642 18 339 8.9 101580 82
2004-03-19 07:51:59 51°12.714 2°49.613 17.9 342 8.9 101570 82
2004-03-19 07:52:05 51°12.703 2°49.579 17.8 348 8.9 101570 82
2004-03-19 07:52:09 51°12.695 2°49.556 17.9 352 8.9 101570 82
2004-03-19 07:52:14 51°12.686 2°49.528 20.3 345 8.9 101570 82
2004-03-19 07:52:19 51°12.677 2°49.5 20.1 344 8.9 101570 81
2004-03-19 07:52:25 51°12.666 2°49.466 20.6 343 8.9 101570 81
2004-03-19 07:52:29 51°12.659 2°49.443 18.4 341 8.9 101580 81
2004-03-19 07:52:34 51°12.65 2°49.414 20.8 342 8.9 101580 81
2004-03-19 07:52:39 51°12.641 2°49.386 18.8 348 8.9 101570 81
2004-03-19 07:52:43 51°12.633 2°49.364 21.2 345 8.9 101570 81
2004-03-19 07:52:49 51°12.622 2°49.33 20.4 349 8.9 101570 81
2004-03-19 07:52:54 51°12.613 2°49.302 18.7 346 8.9 101570 81
2004-03-19 07:52:59 51°12.605 2°49.273 18.2 346 8.9 101570 81
2004-03-19 07:53:05 51°12.594 2°49.239 17.1 346 8.9 101570 81
2004-03-19 07:53:09 51°12.586 2°49.217 17.1 341 9 101570 81
2004-03-19 07:53:13 51°12.579 2°49.194 18.3 342 9 101570 81
2004-03-19 07:53:19 51°12.568 2°49.161 18.1 343 8.9 101550 81
2004-03-19 07:53:25 51°12.557 2°49.127 16.7 343 8.9 101550 81
2004-03-19 07:53:29 51°12.549 2°49.104 16 341 8.9 101560 81
2004-03-19 07:53:35 51°12.537 2°49.07 17.6 345 8.9 101560 81
2004-03-19 07:53:39 51°12.53 2°49.048 16.6 345 8.9 101570 81
2004-03-19 07:53:45 51°12.519 2°49.015 18.9 345 8.9 101570 81
2004-03-19 07:53:49 51°12.512 2°48.993 17.6 347 8.9 101570 81
2004-03-19 07:53:55 51°12.501 2°48.96 17.2 344 8.9 101570 81
2004-03-19 07:53:59 51°12.494 2°48.937 18.2 341 8.9 101570 81
2004-03-19 07:54:05 51°12.483 2°48.903 16.1 346 8.9 101570 81
2004-03-19 07:54:09 51°12.475 2°48.88 17.8 349 8.9 101570 81
2004-03-19 07:54:14 51°12.466 2°48.852 17.5 347 8.9 101570 81
2004-03-19 07:54:19 51°12.457 2°48.824 18.6 345 8.9 101580 81
2004-03-19 07:54:25 51°12.445 2°48.79 19.3 337 8.9 101580 81
2004-03-19 07:54:29 51°12.437 2°48.767 18.3 339 8.9 101560 81
2004-03-19 07:54:34 51°12.427 2°48.738 19.5 341 8.9 101560 81
2004-03-19 07:54:39 51°12.417 2°48.709 15.5 348 8.9 101570 81
2004-03-19 07:54:43 51°12.41 2°48.686 16.2 343 8.9 101570 81
2004-03-19 07:54:49 51°12.398 2°48.651 15.9 344 8.9 101570 81
2004-03-19 07:54:55 51°12.387 2°48.617 16.7 344 8.9 101570 81
2004-03-19 07:54:59 51°12.38 2°48.594 18.9 344 8.9 101560 81
2004-03-19 07:55:05 51°12.368 2°48.56 19.7 343 8.9 101560 81
2004-03-19 07:55:09 51°12.361 2°48.537 18 340 8.9 101570 81
2004-03-19 07:55:13 51°12.353 2°48.514 17.3 341 8.9 101570 81
2004-03-19 07:55:19 51°12.342 2°48.479 18.5 343 8.9 101560 81
2004-03-19 07:55:25 51°12.331 2°48.445 19.3 340 8.9 101560 81
2004-03-19 07:55:29 51°12.324 2°48.422 18.9 340 8.9 101560 81
2004-03-19 07:55:34 51°12.315 2°48.394 18.1 339 8.9 101560 81
2004-03-19 07:55:39 51°12.306 2°48.366 17.5 343 8.9 101560 81
2004-03-19 07:55:43 51°12.298 2°48.343 18.3 343 8.9 101560 81
2004-03-19 07:55:49 51°12.287 2°48.309 16.8 344 8.9 101570 81
2004-03-19 07:55:53 51°12.279 2°48.287 18.5 345 8.9 101570 81
2004-03-19 07:55:59 51°12.268 2°48.253 17.4 341 8.9 101550 81
2004-03-19 07:56:05 51°12.257 2°48.219 19 344 8.9 101550 81
2004-03-19 07:56:09 51°12.25 2°48.196 18.9 341 8.9 101560 81
2004-03-19 07:56:13 51°12.243 2°48.174 18.1 335 8.9 101560 81
2004-03-19 07:56:19 51°12.231 2°48.14 17.6 340 9 101560 81
2004-03-19 07:56:23 51°12.224 2°48.117 18.9 343 9 101560 81
2004-03-19 07:56:29 51°12.213 2°48.084 19.2 344 9 101560 81
2004-03-19 07:56:34 51°12.204 2°48.055 20 344 9 101560 81
2004-03-19 07:56:39 51°12.195 2°48.027 20.5 341 9 101560 81
2004-03-19 07:56:45 51°12.184 2°47.994 20.2 343 9 101560 81
2004-03-19 07:56:49 51°12.177 2°47.971 18.8 338 9 101550 81
2004-03-19 07:56:54 51°12.167 2°47.943 19.2 340 9 101550 81
2004-03-19 07:56:59 51°12.158 2°47.915 19.5 346 9 101550 81
2004-03-19 07:57:05 51°12.147 2°47.882 20.6 344 9 101550 81
2004-03-19 07:57:09 51°12.14 2°47.859 19.8 339 9 101540 80
2004-03-19 07:57:14 51°12.131 2°47.831 18.7 339 9 101540 80
2004-03-19 07:57:19 51°12.122 2°47.803 18.3 337 9 101550 80
2004-03-19 07:57:25 51°12.111 2°47.769 19.3 340 9 101550 80
2004-03-19 07:57:29 51°12.104 2°47.746 18.6 342 9 101560 80
2004-03-19 07:57:34 51°12.094 2°47.718 20.5 342 9 101560 80
2004-03-19 07:57:39 51°12.085 2°47.69 18.5 338 9 101550 80
2004-03-19 07:57:45 51°12.075 2°47.657 19.8 337 9 101550 80
2004-03-19 07:57:49 51°12.067 2°47.634 19.2 341 9 101550 80
2004-03-19 07:57:54 51°12.058 2°47.606 19.1 342 9 101550 80
2004-03-19 07:57:59 51°12.049 2°47.578 18.6 342 9 101560 80
2004-03-19 07:58:03 51°12.042 2°47.556 18.2 343 9 101560 80
2004-03-19 07:58:09 51°12.03 2°47.522 18.3 341 9 101550 80
2004-03-19 07:58:14 51°12.021 2°47.494 19.1 343 9 101550 80
2004-03-19 07:58:19 51°12.012 2°47.466 17.9 339 9 101540 80
2004-03-19 07:58:25 51°12.001 2°47.432 18.4 343 9 101540 80
2004-03-19 07:58:29 51°11.994 2°47.41 17.4 344 9 101560 80
2004-03-19 07:58:34 51°11.984 2°47.381 19.4 339 9 101560 80
2004-03-19 07:58:39 51°11.975 2°47.353 20.5 338 9 101560 80
2004-03-19 07:58:43 51°11.968 2°47.331 19.1 341 9 101560 80
2004-03-19 07:58:49 51°11.957 2°47.297 17.6 339 9 101550 80
2004-03-19 07:58:54 51°11.948 2°47.269 17.5 346 9 101550 80
2004-03-19 07:58:59 51°11.939 2°47.241 19 345 9 101550 80
2004-03-19 07:59:03 51°11.932 2°47.219 17.9 343 9 101550 80
2004-03-19 07:59:09 51°11.921 2°47.184 17.6 342 9 101540 80
2004-03-19 07:59:14 51°11.913 2°47.156 17.3 334 9 101540 80
2004-03-19 07:59:19 51°11.905 2°47.127 16.9 345 9 101550 80
2004-03-19 07:59:23 51°11.899 2°47.104 18.3 339 9 101550 80
2004-03-19 07:59:29 51°11.889 2°47.069 17.8 338 9 101550 81
2004-03-19 07:59:34 51°11.881 2°47.04 19.7 339 9 101550 81
2004-03-19 07:59:39 51°11.874 2°47.011 19.5 339 9 101550 81
2004-03-19 07:59:45 51°11.864 2°46.976 20.2 339 9 101550 81
2004-03-19 07:59:49 51°11.858 2°46.953 18.7 338 9 101550 81
2004-03-19 07:59:54 51°11.85 2°46.923 20.1 338 9 101550 81
2004-03-19 07:59:59 51°11.843 2°46.894 17.5 345 9 101550 80
2004-03-19 08:00:03 51°11.836 2°46.871 18.4 344 9 101550 80
2004-03-19 08:00:09 51°11.827 2°46.836 19.2 344 9 101540 80
2004-03-19 08:00:14 51°11.819 2°46.808 18.5 342 9 101540 80
2004-03-19 08:00:19 51°11.811 2°46.779 17.5 345 9 101550 80
2004-03-19 08:00:23 51°11.805 2°46.755 19.9 338 9 101550 80
2004-03-19 08:00:29 51°11.796 2°46.721 17.8 340 9 101550 80
2004-03-19 08:00:34 51°11.788 2°46.692 18.5 338 9 101550 80
2004-03-19 08:00:39 51°11.78 2°46.662 17.7 340 9 101540 80
2004-03-19 08:00:45 51°11.771 2°46.627 19.3 341 9 101540 80
2004-03-19 08:00:49 51°11.764 2°46.604 17.7 347 9 101550 80
2004-03-19 08:00:54 51°11.757 2°46.575 16.7 342 9 101550 80
2004-03-19 08:00:59 51°11.749 2°46.546 17.9 338 9 101550 80
2004-03-19 08:01:03 51°11.743 2°46.522 18.5 338 9 101550 80
2004-03-19 08:01:09 51°11.733 2°46.487 17.3 344 9 101550 80
2004-03-19 08:01:14 51°11.726 2°46.458 16.9 346 9 101550 80
2004-03-19 08:01:19 51°11.718 2°46.429 19.8 338 9 101550 80
2004-03-19 08:01:25 51°11.708 2°46.395 19.4 337 9 101550 80
2004-03-19 08:01:29 51°11.702 2°46.371 17.9 341 9 101550 80
2004-03-19 08:01:34 51°11.694 2°46.342 17.7 338 9 101550 80
2004-03-19 08:01:39 51°11.687 2°46.314 17.5 341 9 101550 80
2004-03-19 08:01:43 51°11.68 2°46.291 16.8 342 9 101550 80
2004-03-19 08:01:49 51°11.671 2°46.256 16.6 342 9 101540 80
2004-03-19 08:01:54 51°11.664 2°46.227 17.9 340 9 101540 80
2004-03-19 08:01:59 51°11.656 2°46.197 18.4 340 9 101540 80
2004-03-19 08:02:05 51°11.646 2°46.163 17.5 343 9 101540 80
2004-03-19 08:02:09 51°11.64 2°46.139 16.5 344 9 101550 80
2004-03-19 08:02:14 51°11.632 2°46.11 18.5 339 9 101550 80
2004-03-19 08:02:19 51°11.625 2°46.081 18.2 339 9 101550 81
2004-03-19 08:02:24 51°11.617 2°46.052 16.6 329 9 101550 81
2004-03-19 08:02:29 51°11.609 2°46.022 17.6 332 9 101550 81
2004-03-19 08:02:34 51°11.601 2°45.993 16.8 347 9 101550 81
2004-03-19 08:02:39 51°11.593 2°45.964 18.3 345 9 101550 81
2004-03-19 08:02:43 51°11.587 2°45.941 17.3 342 9 101550 81
2004-03-19 08:02:49 51°11.577 2°45.906 16.9 339 9 101550 81
2004-03-19 08:02:54 51°11.569 2°45.877 16.4 341 9 101550 81
2004-03-19 08:02:59 51°11.562 2°45.848 16.1 344 8.9 101550 81
2004-03-19 08:03:03 51°11.555 2°45.825 17.6 342 8.9 101550 81
2004-03-19 08:03:09 51°11.546 2°45.789 18.2 341 9 101550 80
2004-03-19 08:03:14 51°11.538 2°45.76 18.4 339 9 101550 80
2004-03-19 08:03:19 51°11.53 2°45.731 18.4 340 9 101550 81
2004-03-19 08:03:23 51°11.524 2°45.708 19.7 339 9 101550 81
2004-03-19 08:03:29 51°11.515 2°45.672 17.6 340 9 101550 81
2004-03-19 08:03:34 51°11.507 2°45.643 17.2 335 9 101550 81
2004-03-19 08:03:39 51°11.499 2°45.614 17.5 336 9 101540 80
2004-03-19 08:03:45 51°11.49 2°45.579 18 333 9 101540 80
2004-03-19 08:03:49 51°11.484 2°45.556 16.4 335 9 101540 80
2004-03-19 08:03:54 51°11.476 2°45.527 15.9 337 9 101540 80
2004-03-19 08:03:59 51°11.468 2°45.498 16.3 341 9 101540 80
2004-03-19 08:04:03 51°11.462 2°45.475 16 332 9 101540 80
2004-03-19 08:04:09 51°11.452 2°45.44 16.6 343 9 101550 80
2004-03-19 08:04:14 51°11.444 2°45.411 17.5 334 9 101550 80
2004-03-19 08:04:19 51°11.436 2°45.382 15.1 331 9 101550 80
2004-03-19 08:04:23 51°11.43 2°45.359 17 334 9 101550 80
2004-03-19 08:04:29 51°11.421 2°45.324 16.6 334 9 101550 80
2004-03-19 08:04:34 51°11.413 2°45.294 16.2 341 9 101550 80
2004-03-19 08:04:39 51°11.405 2°45.265 15.4 338 9 101540 80
2004-03-19 08:04:45 51°11.395 2°45.23 15.9 342 9 101540 80
2004-03-19 08:04:49 51°11.389 2°45.207 16.1 340 9 101540 80
2004-03-19 08:04:54 51°11.381 2°45.178 15.6 340 9 101540 80
2004-03-19 08:04:59 51°11.374 2°45.149 16 337 9 101540 81
2004-03-19 08:05:03 51°11.367 2°45.125 14.4 339 9 101540 81
2004-03-19 08:05:09 51°11.358 2°45.09 15.2 338 9 101550 81
2004-03-19 08:05:14 51°11.35 2°45.061 15.9 340 9 101550 81
2004-03-19 08:05:19 51°11.343 2°45.032 16.1 339 9 101550 81
2004-03-19 08:05:25 51°11.333 2°44.997 15.2 336 9 101550 81
2004-03-19 08:05:29 51°11.327 2°44.974 15.6 341 8.9 101550 81
2004-03-19 08:05:34 51°11.319 2°44.945 16.7 342 8.9 101550 81
2004-03-19 08:05:39 51°11.312 2°44.915 15 337 8.9 101560 81
2004-03-19 08:05:43 51°11.305 2°44.892 16.8 346 8.9 101560 81
2004-03-19 08:05:49 51°11.296 2°44.857 16 339 8.9 101550 81
2004-03-19 08:05:53 51°11.29 2°44.834 17.4 335 8.9 101550 81
2004-03-19 08:05:59 51°11.28 2°44.799 19.2 336 8.9 101550 81
2004-03-19 08:06:03 51°11.274 2°44.776 16.6 344 8.9 101550 81
2004-03-19 08:06:09 51°11.265 2°44.741 17.6 341 8.9 101560 81
2004-03-19 08:06:14 51°11.257 2°44.712 17.8 341 8.9 101560 81
2004-03-19 08:06:19 51°11.25 2°44.683 17.4 341 8.9 101540 81
2004-03-19 08:06:25 51°11.24 2°44.648 17.4 337 8.9 101540 81
2004-03-19 08:06:29 51°11.234 2°44.625 17.7 336 9 101540 81
2004-03-19 08:06:34 51°11.226 2°44.596 16.2 342 9 101540 81
2004-03-19 08:06:39 51°11.218 2°44.567 16.1 343 8.9 101550 81
2004-03-19 08:06:43 51°11.212 2°44.544 16.6 339 8.9 101550 81
2004-03-19 08:06:49 51°11.202 2°44.509 16.3 341 8.9 101540 81
2004-03-19 08:06:54 51°11.194 2°44.48 16.3 337 8.9 101540 81
2004-03-19 08:06:59 51°11.187 2°44.451 16.3 338 8.9 101540 81
2004-03-19 08:07:03 51°11.18 2°44.428 17.4 337 8.9 101540 81
2004-03-19 08:07:09 51°11.171 2°44.393 16.4 339 9 101550 81
2004-03-19 08:07:14 51°11.163 2°44.364 16.8 338 9 101550 81
2004-03-19 08:07:19 51°11.156 2°44.334 16.7 338 9 101550 81
2004-03-19 08:07:24 51°11.148 2°44.305 18.6 339 9 101550 81
2004-03-19 08:07:29 51°11.141 2°44.276 17.8 336 9 101540 81
2004-03-19 08:07:35 51°11.131 2°44.241 16.2 337 9 101540 81
2004-03-19 08:07:39 51°11.125 2°44.218 16.7 342 9 101540 81
2004-03-19 08:07:45 51°11.116 2°44.183 17.8 340 9 101540 81
2004-03-19 08:07:49 51°11.11 2°44.16 16.6 341 9 101540 81
2004-03-19 08:07:54 51°11.102 2°44.131 17.9 342 9 101540 81
2004-03-19 08:07:59 51°11.094 2°44.102 17.5 338 9 101530 80
2004-03-19 08:08:03 51°11.088 2°44.079 18.5 344 9 101530 80
2004-03-19 08:08:09 51°11.079 2°44.044 18.6 342 9 101540 80
2004-03-19 08:08:14 51°11.071 2°44.015 17 340 9 101540 80
2004-03-19 08:08:19 51°11.063 2°43.986 17.1 340 9 101540 80
2004-03-19 08:08:24 51°11.055 2°43.957 16.4 337 9 101540 80
2004-03-19 08:08:29 51°11.048 2°43.929 16.3 336 9 101540 80
2004-03-19 08:08:34 51°11.04 2°43.9 16.8 337 9 101540 80
2004-03-19 08:08:39 51°11.032 2°43.871 17.4 339 9 101540 80
2004-03-19 08:08:44 51°11.025 2°43.842 18.1 336 9 101540 80
2004-03-19 08:08:49 51°11.017 2°43.813 18.7 343 9 101530 80
2004-03-19 08:08:54 51°11.01 2°43.784 18 330 9 101530 80
2004-03-19 08:08:59 51°11.002 2°43.755 18.4 337 9 101530 80
2004-03-19 08:09:03 51°10.995 2°43.731 17.6 344 9 101530 80
2004-03-19 08:09:09 51°10.986 2°43.697 18.8 338 9 101540 80
2004-03-19 08:09:14 51°10.979 2°43.668 17.1 341 9 101540 80
2004-03-19 08:09:19 51°10.971 2°43.639 16.5 343 9 101540 80
2004-03-19 08:09:23 51°10.965 2°43.616 18.1 336 9 101540 80
2004-03-19 08:09:29 51°10.955 2°43.581 17.1 339 9 101540 80
2004-03-19 08:09:34 51°10.947 2°43.552 18.4 339 9 101540 80
2004-03-19 08:09:39 51°10.94 2°43.523 17.6 337 9 101540 80
2004-03-19 08:09:43 51°10.934 2°43.5 17.3 341 9 101540 80
2004-03-19 08:09:49 51°10.924 2°43.465 16.8 341 9 101530 80
2004-03-19 08:09:54 51°10.917 2°43.436 18.1 340 9 101530 80
2004-03-19 08:09:59 51°10.909 2°43.407 18.3 335 9 101530 80
2004-03-19 08:10:03 51°10.903 2°43.384 17.4 338 9 101530 80
2004-03-19 08:10:09 51°10.894 2°43.349 18.6 341 9 101530 80
2004-03-19 08:10:14 51°10.886 2°43.32 18.2 337 9 101530 80
2004-03-19 08:10:19 51°10.878 2°43.291 17.7 337 9 101530 80
2004-03-19 08:10:25 51°10.869 2°43.257 16.5 340 9 101530 80
2004-03-19 08:10:29 51°10.863 2°43.233 17.3 340 9 101530 80
2004-03-19 08:10:34 51°10.855 2°43.205 18.1 338 9 101530 80
2004-03-19 08:10:39 51°10.847 2°43.176 16 344 9 101530 80
2004-03-19 08:10:43 51°10.841 2°43.152 17.1 338 9 101530 80
2004-03-19 08:10:49 51°10.832 2°43.118 17.5 339 9 101530 80
2004-03-19 08:10:54 51°10.824 2°43.089 16.8 341 9 101530 80
2004-03-19 08:10:59 51°10.817 2°43.06 17.8 338 9 101530 80
2004-03-19 08:11:04 51°10.809 2°43.031 17.7 338 9 101530 80
2004-03-19 08:11:09 51°10.801 2°43.002 18.7 338 9 101540 80
2004-03-19 08:11:14 51°10.793 2°42.973 16.9 338 9 101540 80
2004-03-19 08:11:19 51°10.786 2°42.944 16.7 331 9 101530 80
2004-03-19 08:11:23 51°10.779 2°42.921 17.6 334 9 101530 80
2004-03-19 08:11:29 51°10.77 2°42.887 15.6 338 9 101540 80
2004-03-19 08:11:34 51°10.762 2°42.858 18.2 342 9 101540 80
2004-03-19 08:11:39 51°10.754 2°42.829 17 346 9 101530 80
2004-03-19 08:11:45 51°10.745 2°42.794 18.9 341 9 101530 80
2004-03-19 08:11:49 51°10.739 2°42.771 16.7 339 9 101530 80
2004-03-19 08:11:54 51°10.731 2°42.742 16.9 342 9 101530 80
2004-03-19 08:11:59 51°10.723 2°42.713 16.8 344 9 101530 80
2004-03-19 08:12:05 51°10.715 2°42.679 19.4 341 9 101530 80
2004-03-19 08:12:09 51°10.708 2°42.656 19 339 9 101530 80
2004-03-19 08:12:14 51°10.701 2°42.627 17.9 337 9 101530 80
2004-03-19 08:12:19 51°10.693 2°42.598 19.1 338 9 101530 80
2004-03-19 08:12:25 51°10.684 2°42.563 19.1 339 9 101530 80
2004-03-19 08:12:29 51°10.678 2°42.54 17.3 341 9 101530 80
2004-03-19 08:12:34 51°10.67 2°42.511 19.8 343 9 101530 80
2004-03-19 08:12:39 51°10.662 2°42.483 18.1 340 9 101520 80
2004-03-19 08:12:43 51°10.656 2°42.459 20.2 338 9 101520 80
2004-03-19 08:12:49 51°10.647 2°42.425 19.4 333 9 101530 80
2004-03-19 08:12:54 51°10.639 2°42.396 19.5 338 9 101530 80
2004-03-19 08:12:59 51°10.632 2°42.368 19.5 340 9 101530 80
2004-03-19 08:13:04 51°10.624 2°42.339 17.7 340 9 101530 80
2004-03-19 08:13:09 51°10.617 2°42.31 17.8 344 9 101530 80
2004-03-19 08:13:14 51°10.609 2°42.281 17.7 341 9 101530 80
2004-03-19 08:13:19 51°10.601 2°42.253 17.8 341 9 101520 80
2004-03-19 08:13:24 51°10.594 2°42.224 21.3 341 9 101520 80
2004-03-19 08:13:29 51°10.586 2°42.195 23.1 336 9 101530 80
2004-03-19 08:13:35 51°10.578 2°42.161 19.9 335 9 101530 80
2004-03-19 08:13:39 51°10.572 2°42.138 19.4 339 9 101520 80
2004-03-19 08:13:45 51°10.564 2°42.103 20.2 337 9 101520 80
2004-03-19 08:13:49 51°10.558 2°42.08 21 335 9 101520 80
2004-03-19 08:13:54 51°10.551 2°42.051 19.5 338 9 101520 80
2004-03-19 08:13:59 51°10.544 2°42.022 18.9 336 9 101500 80
2004-03-19 08:14:05 51°10.536 2°41.987 17.3 339 9 101500 80
2004-03-19 08:14:09 51°10.531 2°41.964 17.7 331 9 101510 80
2004-03-19 08:14:14 51°10.524 2°41.935 17.1 336 9 101510 80
2004-03-19 08:14:19 51°10.517 2°41.906 17.1 339 9.1 101510 80
2004-03-19 08:14:23 51°10.511 2°41.883 17.6 342 9.1 101510 80
2004-03-19 08:14:29 51°10.503 2°41.848 16.1 337 9.1 101520 80
2004-03-19 08:14:34 51°10.495 2°41.819 18.8 338 9.1 101520 80
2004-03-19 08:14:39 51°10.488 2°41.79 18.6 338 9.1 101520 80
2004-03-19 08:14:45 51°10.48 2°41.755 17.3 337 9.1 101520 80
2004-03-19 08:14:49 51°10.475 2°41.732 17.7 339 9.1 101520 80
2004-03-19 08:14:54 51°10.468 2°41.703 16.4 336 9.1 101520 80
2004-03-19 08:14:59 51°10.461 2°41.673 16.7 337 9 101530 80
2004-03-19 08:15:05 51°10.452 2°41.639 20.7 335 9 101530 80
2004-03-19 08:15:09 51°10.447 2°41.616 19.2 338 9.1 101520 80
2004-03-19 08:15:14 51°10.44 2°41.587 17.6 338 9.1 101520 80
2004-03-19 08:15:19 51°10.433 2°41.558 18 338 9 101520 80
2004-03-19 08:15:25 51°10.424 2°41.523 17.6 342 9 101520 80
2004-03-19 08:15:29 51°10.419 2°41.5 19.3 342 9 101520 80
2004-03-19 08:15:34 51°10.412 2°41.471 19.5 337 9 101520 80
2004-03-19 08:15:39 51°10.405 2°41.442 18.9 331 9 101520 80
2004-03-19 08:15:43 51°10.4 2°41.419 19.2 337 9 101520 80
2004-03-19 08:15:49 51°10.391 2°41.384 17.6 334 9 101510 80
2004-03-19 08:15:54 51°10.384 2°41.355 17.6 340 9 101510 80
2004-03-19 08:15:59 51°10.377 2°41.326 18.8 342 9 101510 80
2004-03-19 08:16:04 51°10.37 2°41.297 20.1 339 9 101510 80
2004-03-19 08:16:09 51°10.363 2°41.268 19.8 338 9 101510 80
2004-03-19 08:16:14 51°10.356 2°41.24 22 335 9 101510 80
2004-03-19 08:16:19 51°10.349 2°41.211 20.5 342 9.1 101510 80
2004-03-19 08:16:25 51°10.341 2°41.176 20.2 336 9.1 101510 80
2004-03-19 08:16:29 51°10.335 2°41.153 20.2 335 9 101510 80
2004-03-19 08:16:33 51°10.33 2°41.13 20.6 336 9 101510 80
2004-03-19 08:16:39 51°10.322 2°41.096 18.2 337 9 101500 80
2004-03-19 08:16:43 51°10.316 2°41.073 19 341 9 101500 80
2004-03-19 08:16:49 51°10.308 2°41.038 17.6 343 9.1 101500 80
2004-03-19 08:16:54 51°10.301 2°41.01 16.5 342 9.1 101500 80
2004-03-19 08:16:59 51°10.294 2°40.981 17.6 337 9.1 101500 80
2004-03-19 08:17:04 51°10.287 2°40.952 19.3 341 9.1 101500 80
2004-03-19 08:17:09 51°10.28 2°40.923 16.8 339 9.1 101510 80
2004-03-19 08:17:14 51°10.274 2°40.895 19 341 9.1 101510 80
2004-03-19 08:17:19 51°10.267 2°40.866 16.7 335 9.1 101510 80
2004-03-19 08:17:25 51°10.259 2°40.831 18.6 337 9.1 101510 80
2004-03-19 08:17:29 51°10.253 2°40.808 18 339 9.1 101520 80
2004-03-19 08:17:34 51°10.246 2°40.779 18.2 341 9.1 101520 80
2004-03-19 08:17:39 51°10.239 2°40.751 18.4 336 9.1 101510 80
2004-03-19 08:17:45 51°10.231 2°40.716 17.5 334 9.1 101510 80
2004-03-19 08:17:49 51°10.225 2°40.693 20 335 9.1 101510 80
2004-03-19 08:17:54 51°10.219 2°40.664 19.7 339 9.1 101510 80
2004-03-19 08:17:59 51°10.212 2°40.635 19.9 336 9.1 101510 80
2004-03-19 08:18:03 51°10.207 2°40.612 19.7 334 9.1 101510 80
2004-03-19 08:18:09 51°10.199 2°40.578 19.3 333 9.1 101510 80
2004-03-19 08:18:14 51°10.192 2°40.549 16.9 335 9.1 101510 80
2004-03-19 08:18:19 51°10.185 2°40.52 19.3 334 9.1 101500 80
2004-03-19 08:18:25 51°10.177 2°40.486 16.9 337 9.1 101500 80
2004-03-19 08:18:29 51°10.172 2°40.463 18.7 339 9.1 101500 80
2004-03-19 08:18:34 51°10.165 2°40.434 17.6 335 9.1 101500 80
2004-03-19 08:18:39 51°10.158 2°40.405 16.8 335 9.1 101500 80
2004-03-19 08:18:43 51°10.152 2°40.382 20.3 335 9.1 101500 80
2004-03-19 08:18:49 51°10.144 2°40.348 18.9 334 9.1 101510 80
2004-03-19 08:18:54 51°10.137 2°40.319 18.8 336 9.1 101510 80
2004-03-19 08:18:59 51°10.131 2°40.29 17.3 337 9.1 101510 80
2004-03-19 08:19:03 51°10.125 2°40.267 15.6 339 9.1 101510 80
2004-03-19 08:19:09 51°10.117 2°40.233 16.5 332 9.1 101510 80
2004-03-19 08:19:14 51°10.11 2°40.204 16 335 9.1 101510 80
2004-03-19 08:19:19 51°10.103 2°40.176 18.8 335 9.1 101500 80
2004-03-19 08:19:23 51°10.098 2°40.153 17.3 330 9.1 101500 80
2004-03-19 08:19:29 51°10.089 2°40.118 17.5 332 9.1 101500 80
2004-03-19 08:19:34 51°10.082 2°40.09 16.4 337 9.1 101500 80
2004-03-19 08:19:39 51°10.076 2°40.061 18.2 336 9.1 101500 80
2004-03-19 08:19:43 51°10.07 2°40.038 17.2 332 9.1 101500 80
2004-03-19 08:19:49 51°10.062 2°40.003 17.8 331 9.1 101500 80
2004-03-19 08:19:54 51°10.055 2°39.975 15.8 337 9.1 101500 80
2004-03-19 08:19:59 51°10.048 2°39.946 16.8 333 9.1 101500 80
2004-03-19 08:20:03 51°10.042 2°39.923 15.9 329 9.1 101500 80
2004-03-19 08:20:09 51°10.034 2°39.889 17.2 331 9.1 101500 80
2004-03-19 08:20:14 51°10.027 2°39.86 17 330 9.1 101500 80
2004-03-19 08:20:19 51°10.02 2°39.831 16.9 335 9.1 101500 80
2004-03-19 08:20:23 51°10.014 2°39.809 17 331 9.1 101500 80
2004-03-19 08:20:29 51°10.006 2°39.774 18 327 9.1 101490 80
2004-03-19 08:20:34 51°9.999 2°39.746 17.7 334 9.1 101490 80
2004-03-19 08:20:39 51°9.993 2°39.717 15.8 340 9.1 101500 80
2004-03-19 08:20:45 51°9.985 2°39.682 19.1 334 9.1 101500 80
2004-03-19 08:20:49 51°9.979 2°39.659 19.6 336 9.1 101500 80
2004-03-19 08:20:54 51°9.973 2°39.63 17.3 332 9.1 101500 80
2004-03-19 08:20:59 51°9.966 2°39.602 16.8 337 9.1 101490 80
2004-03-19 08:21:05 51°9.958 2°39.567 18.9 335 9.1 101490 80
2004-03-19 08:21:09 51°9.952 2°39.544 18.9 341 9.1 101500 80
2004-03-19 08:21:14 51°9.945 2°39.516 16.9 341 9.1 101500 80
2004-03-19 08:21:19 51°9.939 2°39.487 16.4 335 9.1 101480 80
2004-03-19 08:21:23 51°9.933 2°39.464 17.4 336 9.1 101480 80
2004-03-19 08:21:29 51°9.925 2°39.43 17.1 336 9.1 101500 80
2004-03-19 08:21:34 51°9.918 2°39.401 18.4 334 9.1 101500 80
2004-03-19 08:21:39 51°9.911 2°39.372 18.3 333 9.1 101500 80
2004-03-19 08:21:43 51°9.906 2°39.349 17.4 338 9.1 101500 80
2004-03-19 08:21:49 51°9.898 2°39.315 18.7 340 9.1 101500 80
2004-03-19 08:21:54 51°9.891 2°39.286 18.6 336 9.1 101500 80
2004-03-19 08:21:59 51°9.884 2°39.258 16.9 331 9.1 101500 80
2004-03-19 08:22:04 51°9.877 2°39.229 18.2 338 9.1 101500 80
2004-03-19 08:22:09 51°9.871 2°39.201 16.6 335 9.1 101490 80
2004-03-19 08:22:14 51°9.864 2°39.172 17 332 9.1 101490 80
2004-03-19 08:22:19 51°9.857 2°39.143 19.4 336 9.1 101490 80
2004-03-19 08:22:23 51°9.851 2°39.12 15.7 333 9.1 101490 80
2004-03-19 08:22:29 51°9.843 2°39.086 17.8 336 9.2 101490 80
2004-03-19 08:22:35 51°9.835 2°39.052 16.5 335 9.2 101490 80
2004-03-19 08:22:39 51°9.83 2°39.029 16.8 334 9.1 101500 80
2004-03-19 08:22:43 51°9.824 2°39.006 18 336 9.1 101500 80
2004-03-19 08:22:49 51°9.816 2°38.972 17.1 335 9.2 101490 80
2004-03-19 08:22:54 51°9.81 2°38.943 19.6 335 9.2 101490 80
2004-03-19 08:22:59 51°9.803 2°38.914 18.5 335 9.1 101490 80
2004-03-19 08:23:03 51°9.797 2°38.892 17 335 9.1 101490 80
2004-03-19 08:23:09 51°9.789 2°38.857 16.6 337 9.1 101490 80
2004-03-19 08:23:14 51°9.783 2°38.829 17.7 336 9.1 101490 80
2004-03-19 08:23:19 51°9.776 2°38.8 18 332 9.2 101490 80
2004-03-19 08:23:24 51°9.769 2°38.771 18.9 330 9.2 101490 80
2004-03-19 08:23:29 51°9.763 2°38.743 17.3 336 9.2 101480 80
2004-03-19 08:23:34 51°9.756 2°38.714 16.9 339 9.2 101480 80
2004-03-19 08:23:39 51°9.749 2°38.686 17.2 342 9.2 101480 80
2004-03-19 08:23:44 51°9.742 2°38.657 18 336 9.2 101480 80
2004-03-19 08:23:49 51°9.735 2°38.629 16.4 334 9.2 101470 80
2004-03-19 08:23:53 51°9.73 2°38.606 15.4 337 9.2 101470 80
2004-03-19 08:23:59 51°9.722 2°38.571 16.6 334 9.2 101480 80
2004-03-19 08:24:03 51°9.716 2°38.549 18 341 9.2 101480 80
2004-03-19 08:24:09 51°9.708 2°38.514 16.6 337 9.2 101490 80
2004-03-19 08:24:13 51°9.703 2°38.491 18.6 339 9.2 101490 80
2004-03-19 08:24:19 51°9.695 2°38.457 18.6 334 9.2 101490 80
2004-03-19 08:24:24 51°9.688 2°38.428 18.6 332 9.2 101490 80
2004-03-19 08:24:29 51°9.682 2°38.399 17.5 332 9.2 101490 80
2004-03-19 08:24:34 51°9.675 2°38.37 19.3 341 9.2 101490 80
2004-03-19 08:24:39 51°9.668 2°38.342 17.5 338 9.2 101480 80
2004-03-19 08:24:44 51°9.662 2°38.313 16.6 336 9.2 101480 80
2004-03-19 08:24:49 51°9.655 2°38.285 16.7 336 9.2 101480 80
2004-03-19 08:24:54 51°9.648 2°38.256 16.6 337 9.2 101480 80
2004-03-19 08:24:59 51°9.641 2°38.227 19.1 334 9.2 101480 80
2004-03-19 08:25:05 51°9.633 2°38.193 17 332 9.2 101480 80
2004-03-19 08:25:09 51°9.628 2°38.17 18 341 9.2 101480 80
2004-03-19 08:25:14 51°9.621 2°38.141 18 327 9.2 101480 80
2004-03-19 08:25:19 51°9.614 2°38.113 17.1 332 9.2 101480 80
2004-03-19 08:25:24 51°9.608 2°38.084 20.5 335 9.2 101480 80
2004-03-19 08:25:29 51°9.601 2°38.055 22 328 9.2 101480 80
2004-03-19 08:25:34 51°9.594 2°38.027 18.7 330 9.2 101480 80
2004-03-19 08:25:39 51°9.588 2°37.998 18.9 338 9.2 101480 80
2004-03-19 08:25:43 51°9.582 2°37.975 18.4 336 9.2 101480 80
2004-03-19 08:25:49 51°9.574 2°37.941 18.3 330 9.2 101460 80
2004-03-19 08:25:54 51°9.567 2°37.913 17.2 335 9.2 101460 80
2004-03-19 08:25:59 51°9.561 2°37.884 17.9 337 9.2 101460 80
2004-03-19 08:26:05 51°9.552 2°37.85 20.6 336 9.2 101460 80
2004-03-19 08:26:09 51°9.547 2°37.827 21.7 336 9.2 101480 80
2004-03-19 08:26:14 51°9.54 2°37.798 20.3 339 9.2 101480 80
2004-03-19 08:26:19 51°9.534 2°37.77 21.7 334 9.2 101470 80
2004-03-19 08:26:25 51°9.526 2°37.735 19.2 334 9.2 101470 80
2004-03-19 08:26:29 51°9.521 2°37.713 19.8 335 9.2 101470 80
2004-03-19 08:26:34 51°9.514 2°37.684 20.7 338 9.2 101470 80
2004-03-19 08:26:39 51°9.507 2°37.656 19.9 339 9.2 101460 80
2004-03-19 08:26:43 51°9.502 2°37.633 19.8 332 9.2 101460 80
2004-03-19 08:26:49 51°9.494 2°37.599 21.1 336 9.2 101460 80
2004-03-19 08:26:54 51°9.487 2°37.57 19.5 338 9.2 101460 80
2004-03-19 08:26:59 51°9.48 2°37.541 19.1 337 9.2 101470 80
2004-03-19 08:27:01 51°9.478 2°37.53 18.2 334 9.2 101470 80
2004-03-19 08:27:09 51°9.467 2°37.484 18.8 337 9.2 101470 79
2004-03-19 08:27:14 51°9.46 2°37.456 19.2 334 9.2 101470 79
2004-03-19 08:27:19 51°9.453 2°37.427 19.6 340 9.2 101460 79
2004-03-19 08:27:25 51°9.445 2°37.393 19.1 342 9.2 101460 79
2004-03-19 08:27:29 51°9.44 2°37.37 19.7 335 9.2 101460 79
2004-03-19 08:27:34 51°9.433 2°37.342 20.4 333 9.2 101460 79
2004-03-19 08:27:39 51°9.426 2°37.313 19.3 333 9.2 101460 79
2004-03-19 08:27:45 51°9.418 2°37.279 20.3 338 9.2 101460 79
2004-03-19 08:27:49 51°9.413 2°37.256 19.9 338 9.2 101460 79
2004-03-19 08:27:54 51°9.406 2°37.228 18.6 337 9.2 101460 79
2004-03-19 08:27:59 51°9.399 2°37.199 20.4 338 9.2 101460 79
2004-03-19 08:28:05 51°9.391 2°37.164 19.3 338 9.2 101460 79
2004-03-19 08:28:09 51°9.386 2°37.141 20.1 338 9.2 101460 79
2004-03-19 08:28:13 51°9.38 2°37.119 17.8 336 9.2 101460 79
2004-03-19 08:28:19 51°9.372 2°37.085 19.2 335 9.2 101470 79
2004-03-19 08:28:25 51°9.364 2°37.051 18.4 337 9.2 101470 79
2004-03-19 08:28:29 51°9.359 2°37.028 16.9 340 9.2 101460 79
2004-03-19 08:28:34 51°9.352 2°36.999 18.5 339 9.2 101460 79
2004-03-19 08:28:39 51°9.345 2°36.971 18.7 341 9.2 101470 80
2004-03-19 08:28:44 51°9.338 2°36.942 18.8 339 9.2 101470 80
2004-03-19 08:28:49 51°9.331 2°36.914 19.7 338 9.2 101470 80
2004-03-19 08:28:54 51°9.325 2°36.885 18.7 336 9.2 101470 80
2004-03-19 08:28:59 51°9.318 2°36.856 18.2 334 9.2 101470 80
2004-03-19 08:29:05 51°9.31 2°36.822 20 339 9.2 101470 80
2004-03-19 08:29:09 51°9.305 2°36.799 19.4 336 9.2 101470 80
2004-03-19 08:29:14 51°9.299 2°36.77 18.6 339 9.2 101470 80
2004-03-19 08:29:19 51°9.292 2°36.742 21.5 334 9.2 101470 80
2004-03-19 08:29:24 51°9.285 2°36.713 19.5 332 9.2 101470 80
2004-03-19 08:29:29 51°9.279 2°36.685 18.4 338 9.2 101460 80
2004-03-19 08:29:34 51°9.272 2°36.656 18 337 9.2 101460 80
2004-03-19 08:29:39 51°9.266 2°36.628 18.2 334 9.2 101450 80
2004-03-19 08:29:45 51°9.258 2°36.594 19.8 337 9.2 101450 80
2004-03-19 08:29:49 51°9.253 2°36.571 19 335 9.2 101450 80
2004-03-19 08:29:54 51°9.246 2°36.542 21.4 333 9.2 101450 80
2004-03-19 08:29:59 51°9.24 2°36.514 17.8 337 9.2 101460 80
2004-03-19 08:30:04 51°9.234 2°36.485 20.3 338 9.2 101460 80
2004-03-19 08:30:09 51°9.227 2°36.457 21.7 338 9.2 101460 80
2004-03-19 08:30:13 51°9.222 2°36.434 19 336 9.2 101460 80
2004-03-19 08:30:19 51°9.214 2°36.4 20.1 333 9.2 101460 80
2004-03-19 08:30:25 51°9.207 2°36.366 21 339 9.2 101460 80
2004-03-19 08:30:29 51°9.202 2°36.344 19 336 9.2 101450 80
2004-03-19 08:30:34 51°9.195 2°36.316 21.3 338 9.2 101450 80
2004-03-19 08:30:39 51°9.189 2°36.287 20.3 335 9.2 101450 80
2004-03-19 08:30:44 51°9.182 2°36.259 18.1 339 9.2 101450 80
2004-03-19 08:30:49 51°9.175 2°36.231 19.8 336 9.2 101450 80
2004-03-19 08:30:54 51°9.168 2°36.203 18.2 341 9.2 101450 80
2004-03-19 08:30:59 51°9.161 2°36.175 17.7 340 9.2 101460 80
2004-03-19 08:31:01 51°9.158 2°36.164 19.8 335 9.2 101460 80
2004-03-19 08:31:09 51°9.147 2°36.12 19.4 335 9.2 101450 80
2004-03-19 08:31:14 51°9.14 2°36.092 20.2 340 9.2 101450 80
2004-03-19 08:31:19 51°9.132 2°36.063 18.7 334 9.2 101450 80
2004-03-19 08:31:25 51°9.124 2°36.03 20.8 338 9.2 101450 80
2004-03-19 08:31:29 51°9.118 2°36.007 18.4 332 9.2 101460 80
2004-03-19 08:31:34 51°9.111 2°35.979 20.9 337 9.2 101460 80
2004-03-19 08:31:39 51°9.103 2°35.951 18.9 338 9.2 101450 80
2004-03-19 08:31:45 51°9.095 2°35.917 18.6 340 9.2 101450 80
2004-03-19 08:31:49 51°9.089 2°35.895 19.3 334 9.2 101450 80
2004-03-19 08:31:54 51°9.082 2°35.867 18.4 339 9.2 101450 80
2004-03-19 08:31:59 51°9.075 2°35.84 18.5 338 9.2 101440 80
2004-03-19 08:32:03 51°9.069 2°35.817 19.4 334 9.2 101440 80
2004-03-19 08:32:09 51°9.06 2°35.784 20.4 342 9.2 101440 80
2004-03-19 08:32:14 51°9.053 2°35.756 19.4 344 9.2 101440 80
2004-03-19 08:32:19 51°9.046 2°35.728 20.9 338 9.2 101440 80
2004-03-19 08:32:25 51°9.038 2°35.695 18.6 342 9.2 101440 80
2004-03-19 08:32:29 51°9.032 2°35.673 20.3 339 9.2 101440 80
2004-03-19 08:32:34 51°9.025 2°35.645 17.8 337 9.2 101440 80
2004-03-19 08:32:39 51°9.018 2°35.616 19.8 337 9.2 101440 80
2004-03-19 08:32:45 51°9.01 2°35.583 21.1 339 9.2 101440 80
2004-03-19 08:32:49 51°9.004 2°35.56 21.7 335 9.2 101440 80
2004-03-19 08:32:54 51°8.997 2°35.532 21.1 337 9.2 101440 80
2004-03-19 08:32:59 51°8.99 2°35.505 19 334 9.2 101440 80
2004-03-19 08:33:05 51°8.982 2°35.471 21.2 335 9.2 101440 80
2004-03-19 08:33:09 51°8.976 2°35.448 18.7 332 9.2 101440 80
2004-03-19 08:33:14 51°8.969 2°35.421 19 337 9.2 101440 80
2004-03-19 08:33:19 51°8.962 2°35.393 20 336 9.2 101430 80
2004-03-19 08:33:25 51°8.953 2°35.359 18.1 340 9.2 101430 80
2004-03-19 08:33:29 51°8.947 2°35.337 22.7 334 9.2 101430 80
2004-03-19 08:33:34 51°8.94 2°35.309 21 332 9.2 101430 80
2004-03-19 08:33:39 51°8.933 2°35.281 23.7 336 9.2 101430 80
2004-03-19 08:33:43 51°8.927 2°35.259 22.7 335 9.2 101430 80
2004-03-19 08:33:49 51°8.918 2°35.225 22 332 9.2 101440 80
2004-03-19 08:33:54 51°8.911 2°35.197 22.3 338 9.2 101440 80
2004-03-19 08:33:59 51°8.904 2°35.169 21.8 337 9.2 101420 80
2004-03-19 08:34:05 51°8.895 2°35.135 22.3 339 9.2 101420 80
2004-03-19 08:34:09 51°8.889 2°35.112 21.7 339 9.2 101420 79
2004-03-19 08:34:14 51°8.882 2°35.084 20.8 335 9.2 101420 79
2004-03-19 08:34:19 51°8.875 2°35.057 19 335 9.3 101420 79
2004-03-19 08:34:24 51°8.868 2°35.029 22.1 337 9.3 101420 79
2004-03-19 08:34:29 51°8.861 2°35 22.1 334 9.3 101420 79
2004-03-19 08:34:34 51°8.853 2°34.972 20.8 334 9.3 101420 79
2004-03-19 08:34:39 51°8.846 2°34.945 20.2 339 9.3 101420 79
2004-03-19 08:34:45 51°8.838 2°34.912 21.8 337 9.3 101420 79
2004-03-19 08:34:49 51°8.832 2°34.889 20.3 335 9.3 101430 79
2004-03-19 08:34:54 51°8.825 2°34.861 18.8 338 9.3 101430 79
2004-03-19 08:34:59 51°8.818 2°34.833 21.1 336 9.3 101420 79
2004-03-19 08:35:03 51°8.812 2°34.811 21.4 338 9.3 101420 79
2004-03-19 08:35:09 51°8.804 2°34.777 21.7 340 9.3 101420 79
2004-03-19 08:35:14 51°8.797 2°34.749 20.2 335 9.3 101420 79
2004-03-19 08:35:19 51°8.79 2°34.722 21.2 331 9.3 101430 79
2004-03-19 08:35:25 51°8.782 2°34.688 20.4 333 9.3 101430 79
2004-03-19 08:35:29 51°8.777 2°34.666 20.7 334 9.3 101430 79
2004-03-19 08:35:34 51°8.769 2°34.638 17.6 332 9.3 101430 79
2004-03-19 08:35:39 51°8.763 2°34.611 17.5 333 9.3 101430 79
2004-03-19 08:35:45 51°8.754 2°34.577 20.8 335 9.3 101430 79
2004-03-19 08:35:49 51°8.748 2°34.555 20.5 336 9.3 101420 79
2004-03-19 08:35:54 51°8.741 2°34.527 17.4 338 9.3 101420 79
2004-03-19 08:35:59 51°8.733 2°34.499 18.1 336 9.3 101430 79
2004-03-19 08:36:05 51°8.725 2°34.466 20.8 336 9.3 101430 79
2004-03-19 08:36:09 51°8.719 2°34.443 19.1 334 9.4 101430 79
2004-03-19 08:36:14 51°8.712 2°34.416 20.1 340 9.4 101430 79